Currently 70°F in Simi Valley, California, USA
70°F
70°F / 67°F
19 mph NE
0.00"
Monday, December 11, 2017 8:57 AM PST

Simi Valley, California Climate Summary
Typical July Day

Normal High:    86.7°F (30.4°C)
Normal Low:    61.3°F (16.3°C)
Average:    73.2°F (22.9°C)

Hour    Temperature    Wind Speed    Humidity
12:00 AM    67°F (19°C)    1 mph    68%
1:00 AM    66°F (19°C)    1 mph    69%
2:00 AM    65°F (18°C)    1 mph    71%
3:00 AM    64°F (18°C)    1 mph    72%
4:00 AM    63°F (17°C)    1 mph    73%
5:00 AM    63°F (17°C)    1 mph    74%
6:00 AM    62°F (17°C)    1 mph    76%
7:00 AM    63°F (17°C)    1 mph    77%
8:00 AM    67°F (19°C)    1 mph    73%
9:00 AM    71°F (22°C)    2 mph    67%
10:00 AM    76°F (24°C)    3 mph    59%
11:00 AM    80°F (27°C)    5 mph    51%
12:00 PM    83°F (28°C)    5 mph    46%
1:00 PM    85°F (29°C)    6 mph    44%
2:00 PM    85°F (29°C)    7 mph    44%
3:00 PM    85°F (29°C)    7 mph    44%
4:00 PM    84°F (29°C)    7 mph    44%
5:00 PM    83°F (28°C)    6 mph    45%
6:00 PM    81°F (27°C)    6 mph    47%
7:00 PM    79°F (26°C)    5 mph    51%
8:00 PM    75°F (24°C)    4 mph    58%
9:00 PM    72°F (22°C)    2 mph    64%
10:00 PM    70°F (21°C)    1 mph    66%
11:00 PM    68°F (20°C)    1 mph    68%
 

The Simi Valley, California weather pages are a service of WeatherCurrents.
Copyright ©Mon Dec 11 08:57:52 PST 2017  WeatherCurrents. All rights reserved. - Submit questions and comments - Privacy Policy